Time;durP1;ratioP1;P1;durP2;ratioP2;P2;SDS_P1;SDS_P2;PMS_P1;PMS_P2;Temp;Humidity;BMP_temperature;BMP_pressure;BME280_temperature;BME280_humidity;BME280_pressure;Samples;Min_cycle;Max_cycle;Signal;HPM_P1;HPM_P2
2023/10/29 00:12:35;;;;;;;3.17;2.00;;;0.70;99.90;;;;;;2027251;69;26267;-92
2023/10/29 00:15:24;;;;;;;2.03;1.57;;;0.80;99.90;;;;;;1992036;71;25755;-92
2023/10/29 00:18:12;;;;;;;2.43;1.27;;;0.80;99.90;;;;;;1982082;71;25823;-91
2023/10/29 00:21:03;;;;;;;2.53;2.00;;;0.90;99.90;;;;;;1991629;71;25193;-93
2023/10/29 00:23:51;;;;;;;3.77;1.70;;;0.90;99.90;;;;;;1983184;71;25309;-92
2023/10/29 00:26:40;;;;;;;1.63;1.43;;;0.90;99.90;;;;;;1988815;71;25955;-92
2023/10/29 00:32:22;;;;;;;3.50;1.90;;;1.00;99.90;;;;;;1937676;73;27206;-92
2023/10/29 00:35:11;;;;;;;2.23;1.70;;;1.00;99.90;;;;;;1903960;73;25282;-92
2023/10/29 00:38:00;;;;;;;3.17;2.00;;;1.00;99.90;;;;;;1894759;75;25749;-92
2023/10/29 00:57:49;;;;;;;3.17;2.00;;;1.40;99.90;;;;;;1944734;72;26890;-92
2023/10/29 01:32:29;;;;;;;4.03;2.10;;;1.60;99.90;;;;;;1976959;71;26865;-92
2023/10/29 02:02:26;;;;;;;4.37;1.97;;;1.60;99.90;;;;;;1928324;70;27066;-90
2023/10/29 02:34:32;;;;;;;2.20;1.73;;;1.60;99.90;;;;;;1936448;72;26835;-92
2023/10/29 03:09:05;;;;;;;4.73;2.30;;;1.70;99.90;;;;;;1922233;73;27460;-91
2023/10/29 03:40:02;;;;;;;4.77;2.00;;;1.70;99.90;;;;;;1820049;76;27091;-92
2023/10/29 04:01:28;;;;;;;4.07;2.50;;;1.50;99.90;;;;;;1982151;71;26414;-92
2023/10/29 04:31:36;;;;;;;3.33;2.10;;;1.50;99.90;;;;;;2015561;69;27169;-91
2023/10/29 04:53:05;;;;;;;3.13;2.27;;;1.40;99.90;;;;;;1909422;74;26959;-89
2023/10/29 04:58:46;;;;;;;3.40;1.80;;;1.40;99.90;;;;;;2038990;69;27537;-91
2023/10/29 05:01:36;;;;;;;3.20;1.97;;;1.40;99.90;;;;;;2006457;71;25741;-91
2023/10/29 05:04:25;;;;;;;2.87;1.80;;;1.40;99.90;;;;;;2001620;70;25299;-91
2023/10/29 05:07:13;;;;;;;4.77;2.33;;;1.40;99.90;;;;;;2015877;70;25737;-91
2023/10/29 05:10:02;;;;;;;6.67;2.30;;;1.30;99.90;;;;;;2002330;71;25194;-91
2023/10/29 05:12:50;;;;;;;4.30;1.93;;;1.30;99.90;;;;;;2002431;71;25757;-91
2023/10/29 05:15:39;;;;;;;5.83;2.13;;;1.40;99.90;;;;;;2000067;71;25179;-91
2023/10/29 05:18:27;;;;;;;2.07;1.77;;;1.30;99.90;;;;;;2000744;71;25153;-91
2023/10/29 05:48:04;;;;;;;7.63;2.30;;;1.40;99.90;;;;;;1945485;72;28130;-91
2023/10/29 06:10:19;;;;;;;3.80;2.30;;;1.50;99.90;;;;;;1972980;71;26513;-91
2023/10/29 06:13:08;;;;;;;2.70;2.07;;;1.50;99.90;;;;;;2013204;69;25245;-90
2023/10/29 06:15:57;;;;;;;4.83;2.00;;;1.60;99.90;;;;;;2004614;70;25210;-90
2023/10/29 06:18:46;;;;;;;2.93;1.83;;;1.60;99.90;;;;;;2007061;70;25140;-90
2023/10/29 06:21:36;;;;;;;4.23;2.30;;;1.60;99.90;;;;;;2032864;70;25227;-90
2023/10/29 06:25:05;;;;;;;3.53;2.20;;;1.70;99.90;;;;;;2021315;69;25337;-90
2023/10/29 06:27:54;;;;;;;3.13;1.67;;;1.70;99.90;;;;;;2009874;70;25516;-90
2023/10/29 06:30:44;;;;;;;4.97;2.00;;;1.70;99.90;;;;;;2011354;69;25174;-90
2023/10/29 06:33:35;;;;;;;3.30;2.17;;;1.80;99.90;;;;;;2032117;69;25840;-90
2023/10/29 06:36:25;;;;;;;4.83;2.37;;;1.80;99.90;;;;;;2021343;70;25728;-90
2023/10/29 06:39:14;;;;;;;2.20;1.90;;;1.70;99.90;;;;;;2027829;70;25278;-90
2023/10/29 06:42:07;;;;;;;8.07;2.70;;;1.80;99.90;;;;;;2006186;70;25155;-90
2023/10/29 06:44:56;;;;;;;5.63;2.40;;;1.80;99.90;;;;;;1999851;70;26501;-90
2023/10/29 07:03:45;;;;;;;4.90;1.87;;;1.80;99.90;;;;;;1910753;74;26415;-89
2023/10/29 07:12:53;;;;;;;4.43;2.70;;;1.90;99.90;;;;;;2000654;71;26260;-92
2023/10/29 07:15:42;;;;;;;2.90;2.30;;;1.90;99.90;;;;;;1962897;72;25260;-92
2023/10/29 07:35:03;;;;;;;7.00;3.47;;;1.80;99.90;;;;;;1944056;72;27186;-92
2023/10/29 07:37:52;;;;;;;6.03;2.93;;;1.80;99.90;;;;;;1921642;73;25322;-92
2023/10/29 07:40:41;;;;;;;3.67;2.50;;;1.80;99.90;;;;;;1917623;73;25211;-92
2023/10/29 07:43:29;;;;;;;4.53;2.20;;;1.80;99.90;;;;;;1898199;75;25830;-92
2023/10/29 07:49:07;;;;;;;3.17;1.70;;;1.80;99.90;;;;;;1953789;72;27613;-92
2023/10/29 07:51:56;;;;;;;5.03;2.40;;;1.70;99.90;;;;;;1917466;73;25279;-91
2023/10/29 07:54:45;;;;;;;3.20;2.10;;;1.70;99.90;;;;;;1925045;73;25302;-91
2023/10/29 07:57:34;;;;;;;3.73;2.00;;;1.80;99.90;;;;;;1923993;73;25250;-91
2023/10/29 08:00:23;;;;;;;1.77;1.67;;;1.80;99.90;;;;;;1881368;75;25233;-91
2023/10/29 08:03:12;;;;;;;2.10;1.73;;;1.90;99.90;;;;;;1917622;73;25336;-91
2023/10/29 08:06:00;;;;;;;1.80;1.70;;;1.90;99.90;;;;;;1920713;73;25225;-91
2023/10/29 08:08:49;;;;;;;5.30;1.97;;;1.90;99.90;;;;;;1927941;73;25252;-90
2023/10/29 08:11:38;;;;;;;3.80;2.00;;;1.90;99.90;;;;;;1917416;73;25233;-90
2023/10/29 08:14:26;;;;;;;2.37;1.60;;;2.00;99.90;;;;;;1928629;73;25253;-91
2023/10/29 08:17:17;;;;;;;3.70;2.03;;;2.00;99.90;;;;;;1926937;73;25263;-90
2023/10/29 08:20:06;;;;;;;3.30;1.77;;;2.00;99.90;;;;;;1917293;73;25307;-90
2023/10/29 08:22:55;;;;;;;1.33;1.23;;;2.00;99.90;;;;;;1919993;73;25209;-89
2023/10/29 08:25:43;;;;;;;7.00;1.93;;;2.00;99.90;;;;;;1914972;73;25223;-89
2023/10/29 08:28:32;;;;;;;2.17;1.20;;;1.90;99.90;;;;;;1919630;73;25251;-90
2023/10/29 08:31:21;;;;;;;5.57;2.10;;;2.00;99.90;;;;;;1918095;73;25770;-92
2023/10/29 08:34:10;;;;;;;2.17;1.70;;;2.00;99.90;;;;;;1927485;73;25259;-92
2023/10/29 08:36:59;;;;;;;3.37;1.83;;;2.00;99.90;;;;;;1917424;73;25207;-92
2023/10/29 08:39:48;;;;;;;5.87;2.40;;;2.10;99.90;;;;;;1918655;73;25254;-92
2023/10/29 08:42:37;;;;;;;2.73;1.77;;;2.10;99.90;;;;;;1919501;73;25211;-91
2023/10/29 09:15:44;;;;;;;2.10;1.77;;;2.20;99.90;;;;;;1928299;72;27047;-89
2023/10/29 09:18:33;;;;;;;1.40;1.30;;;2.20;99.90;;;;;;1884819;75;25245;-89
2023/10/29 09:24:12;;;;;;;2.90;1.60;;;2.20;99.90;;;;;;1967314;72;27070;-89
2023/10/29 09:27:01;;;;;;;2.00;1.53;;;2.20;99.90;;;;;;1935009;73;25226;-90
2023/10/29 09:29:50;;;;;;;2.87;2.03;;;2.20;99.90;;;;;;1941902;73;25290;-89
2023/10/29 09:32:39;;;;;;;1.50;1.33;;;2.20;99.90;;;;;;1932416;73;25368;-89
2023/10/29 09:35:28;;;;;;;2.80;1.80;;;2.20;99.90;;;;;;1930513;73;25710;-89
2023/10/29 09:38:19;;;;;;;1.20;1.10;;;2.20;99.90;;;;;;1935645;73;25213;-88
2023/10/29 09:41:07;;;;;;;1.50;1.13;;;2.30;99.90;;;;;;1926449;73;25179;-88
2023/10/29 09:57:54;;;;;;;4.97;2.13;;;2.30;99.90;;;;;;1925725;73;26354;-90
2023/10/29 10:03:29;;;;;;;2.27;1.37;;;2.50;99.90;;;;;;1957292;72;27117;-90
2023/10/29 10:09:14;;;;;;;2.97;1.77;;;2.50;99.90;;;;;;1952305;72;27197;-89
2023/10/29 10:12:07;;;;;;;2.73;1.90;;;2.60;99.90;;;;;;1922919;73;25224;-89
2023/10/29 10:15:05;;;;;;;2.37;1.57;;;2.60;99.90;;;;;;1946863;72;25308;-89
2023/10/29 10:17:59;;;;;;;2.03;1.37;;;2.70;99.90;;;;;;1938455;73;25237;-89
2023/10/29 10:20:52;;;;;;;3.53;1.93;;;2.60;99.90;;;;;;1947197;73;25672;-90
2023/10/29 10:23:51;;;;;;;4.77;2.10;;;2.50;99.90;;;;;;1938978;72;25407;-91
2023/10/29 10:26:53;;;;;;;3.50;1.80;;;2.60;99.90;;;;;;1949815;72;25195;-89
2023/10/29 10:29:42;;;;;;;6.17;3.13;;;2.70;99.90;;;;;;1927482;72;25160;-89
2023/10/29 10:32:30;;;;;;;4.37;2.30;;;2.70;99.90;;;;;;1921600;73;25242;-89
2023/10/29 10:35:20;;;;;;;15.23;1.97;;;2.80;99.90;;;;;;1884218;74;25774;-89
2023/10/29 10:38:08;;;;;;;7.33;2.20;;;2.70;99.90;;;;;;1945771;73;25222;-89
2023/10/29 10:40:59;;;;;;;6.23;2.50;;;2.60;99.90;;;;;;1929641;73;25283;-90
2023/10/29 10:58:00;;;;;;;2.30;2.10;;;2.80;99.90;;;;;;1940410;71;26241;-91
2023/10/29 11:36:34;;;;;;;5.40;2.67;;;2.70;99.90;;;;;;1943088;72;26208;-89
2023/10/29 11:39:32;;;;;;;2.57;1.90;;;2.70;99.90;;;;;;1923341;72;25226;-90
2023/10/29 11:42:28;;;;;;;3.73;2.03;;;2.70;99.90;;;;;;1975986;72;25222;-89
2023/10/29 12:18:27;;;;;;;2.50;2.10;;;3.20;99.90;;;;;;1948398;72;27348;-89
2023/10/29 12:21:16;;;;;;;2.60;1.83;;;3.20;99.90;;;;;;1934007;72;25811;-90
2023/10/29 12:24:07;;;;;;;7.00;2.03;;;3.20;99.90;;;;;;1920514;73;25722;-90
2023/10/29 12:26:56;;;;;;;1.57;1.47;;;3.10;99.90;;;;;;1923473;73;25231;-90
2023/10/29 12:29:45;;;;;;;2.07;1.50;;;3.10;99.90;;;;;;1935872;72;25274;-90
2023/10/29 12:32:34;;;;;;;1.30;1.20;;;3.10;99.90;;;;;;1921985;73;25683;-90
2023/10/29 12:35:35;;;;;;;2.83;1.90;;;3.10;99.90;;;;;;1932344;73;25615;-90
2023/10/29 12:38:24;;;;;;;3.90;1.40;;;3.30;99.90;;;;;;1944249;72;25247;-88
2023/10/29 12:41:14;;;;;;;8.77;2.00;;;3.30;99.90;;;;;;1925610;72;25230;-90
2023/10/29 12:44:03;;;;;;;2.50;2.00;;;3.30;99.90;;;;;;1874445;75;25277;-90
2023/10/29 12:46:52;;;;;;;2.83;2.00;;;3.30;99.90;;;;;;1822494;78;25260;-91
2023/10/29 12:49:40;;;;;;;6.83;2.00;;;3.20;99.90;;;;;;1822574;78;25371;-90
2023/10/29 12:52:29;;;;;;;2.93;2.20;;;3.30;99.90;;;;;;1898664;73;25321;-90
2023/10/29 12:55:17;;;;;;;3.70;2.50;;;3.40;99.90;;;;;;1902665;74;25169;-90
2023/10/29 12:58:06;;;;;;;2.60;1.67;;;3.40;99.90;;;;;;1896706;75;25357;-90
2023/10/29 13:03:39;;;;;;;2.40;1.37;;;3.40;99.90;;;;;;1948639;72;27066;-90
2023/10/29 13:06:27;;;;;;;1.77;1.67;;;3.30;99.90;;;;;;1918632;73;25226;-90
2023/10/29 13:09:18;;;;;;;1.30;1.20;;;3.20;99.90;;;;;;1917780;73;25191;-90
2023/10/29 13:12:10;;;;;;;2.47;1.67;;;3.20;99.90;;;;;;1927261;73;25271;-90
2023/10/29 13:14:58;;;;;;;2.90;1.70;;;3.20;99.90;;;;;;1916567;73;25287;-90
2023/10/29 13:17:47;;;;;;;5.63;2.37;;;3.20;99.90;;;;;;1923959;73;25246;-90
2023/10/29 13:20:36;;;;;;;3.53;1.90;;;3.20;99.90;;;;;;1928110;73;25216;-90
2023/10/29 13:23:25;;;;;;;8.50;1.70;;;3.30;99.90;;;;;;1922693;73;25307;-91
2023/10/29 13:26:14;;;;;;;1.83;1.70;;;3.30;99.90;;;;;;1921316;73;25245;-90
2023/10/29 13:29:03;;;;;;;4.30;2.30;;;3.20;99.90;;;;;;1921229;73;25267;-90
2023/10/29 13:31:51;;;;;;;2.97;1.70;;;3.20;99.90;;;;;;1918463;73;25624;-90
2023/10/29 13:34:41;;;;;;;3.53;1.43;;;3.30;99.90;;;;;;1931690;73;25229;-90
2023/10/29 13:37:30;;;;;;;2.10;1.67;;;3.20;99.90;;;;;;1916499;75;25299;-90
2023/10/29 13:40:19;;;;;;;2.77;1.87;;;3.20;99.90;;;;;;1919943;73;25304;-90
2023/10/29 13:43:08;;;;;;;2.57;1.30;;;3.20;99.90;;;;;;1899872;75;25810;-90
2023/10/29 13:49:15;;;;;;;2.13;1.70;;;3.30;99.90;;;;;;2021601;69;27062;-90
2023/10/29 13:54:56;;;;;;;2.17;1.90;;;3.40;99.90;;;;;;1947779;72;27050;-90
2023/10/29 13:57:46;;;;;;;2.73;2.17;;;3.40;99.90;;;;;;1933419;73;25217;-90
2023/10/29 14:00:35;;;;;;;1.47;1.33;;;3.20;99.90;;;;;;1924106;73;25209;-90
2023/10/29 14:03:24;;;;;;;4.80;2.60;;;3.20;99.90;;;;;;1923500;73;25233;-91
2023/10/29 14:06:12;;;;;;;3.07;1.60;;;3.30;99.90;;;;;;1922425;73;25250;-90
2023/10/29 14:09:02;;;;;;;2.33;2.10;;;3.20;99.90;;;;;;1920098;73;25230;-91
2023/10/29 14:11:53;;;;;;;2.33;1.63;;;3.20;99.90;;;;;;1916802;73;25232;-89
2023/10/29 14:14:41;;;;;;;2.70;2.03;;;3.20;99.90;;;;;;1889414;75;25271;-89
2023/10/29 14:17:30;;;;;;;2.00;1.50;;;3.10;99.90;;;;;;1929564;73;25352;-89
2023/10/29 14:20:18;;;;;;;2.60;1.67;;;3.10;99.90;;;;;;1918778;73;25277;-89
2023/10/29 14:23:07;;;;;;;4.60;1.87;;;3.10;99.90;;;;;;1931977;73;25254;-89
2023/10/29 14:25:56;;;;;;;3.90;2.20;;;3.10;99.90;;;;;;1928333;73;25255;-89
2023/10/29 14:28:45;;;;;;;3.70;2.40;;;3.10;99.90;;;;;;1925712;73;25699;-89
2023/10/29 14:31:36;;;;;;;4.07;2.40;;;3.00;99.90;;;;;;1923555;73;25268;-89
2023/10/29 14:34:25;;;;;;;4.07;2.33;;;3.10;99.90;;;;;;1916861;73;25333;-89
2023/10/29 14:37:14;;;;;;;4.17;1.93;;;3.20;99.90;;;;;;1931789;73;25356;-89
2023/10/29 14:42:49;;;;;;;5.43;2.50;;;3.10;99.90;;;;;;1952532;72;27317;-90
2023/10/29 14:45:42;;;;;;;3.17;2.00;;;3.10;99.90;;;;;;1907754;73;25292;-90
2023/10/29 14:48:28;;;;;;;3.07;1.90;;;3.10;99.90;;;;;;1933864;73;25237;-90
2023/10/29 14:51:18;;;;;;;5.20;1.90;;;3.00;99.90;;;;;;1946499;73;25798;-89
2023/10/29 14:54:07;;;;;;;3.53;2.00;;;3.00;99.90;;;;;;1934832;73;25656;-89
2023/10/29 14:56:56;;;;;;;2.87;2.20;;;2.90;99.90;;;;;;1942126;73;25245;-89
2023/10/29 14:59:44;;;;;;;3.33;2.23;;;2.90;99.90;;;;;;1935070;73;25671;-89
2023/10/29 15:02:33;;;;;;;2.90;1.73;;;2.90;99.90;;;;;;1945897;73;25358;-89
2023/10/29 15:05:22;;;;;;;2.40;1.80;;;2.90;99.90;;;;;;1935680;73;25670;-89
2023/10/29 15:08:11;;;;;;;1.80;1.30;;;2.90;99.90;;;;;;1941666;73;25288;-89
2023/10/29 15:11:00;;;;;;;4.07;2.03;;;2.90;99.90;;;;;;1924259;73;25230;-89
2023/10/29 15:13:49;;;;;;;1.30;1.10;;;2.90;99.90;;;;;;1932237;73;26666;-89
2023/10/29 15:16:37;;;;;;;3.60;1.70;;;2.90;99.90;;;;;;1938221;73;25150;-89
2023/10/29 15:19:26;;;;;;;0.87;0.87;;;2.90;99.90;;;;;;1939448;73;25326;-89
2023/10/29 15:25:08;;;;;;;1.30;1.13;;;2.90;99.90;;;;;;1962246;72;26579;-90
2023/10/29 15:27:57;;;;;;;3.90;2.00;;;2.90;99.90;;;;;;1925291;73;25178;-90
2023/10/29 15:30:46;;;;;;;2.60;1.33;;;2.90;99.90;;;;;;1931168;72;25255;-89
2023/10/29 15:33:35;;;;;;;2.80;1.60;;;2.80;99.90;;;;;;1903523;75;25238;-90
2023/10/29 15:36:24;;;;;;;5.50;2.07;;;2.80;99.90;;;;;;1865908;75;25754;-90
2023/10/29 15:39:12;;;;;;;1.47;1.37;;;2.70;99.90;;;;;;1866582;75;25707;-90
2023/10/29 15:42:00;;;;;;;2.20;1.63;;;2.80;99.90;;;;;;1870590;75;25533;-90
2023/10/29 15:44:48;;;;;;;5.53;1.60;;;2.70;99.90;;;;;;1898124;75;25740;-90
2023/10/29 15:47:37;;;;;;;1.63;1.53;;;2.70;99.90;;;;;;1882879;75;25168;-90
2023/10/29 15:50:25;;;;;;;2.33;1.53;;;2.70;99.90;;;;;;1911211;74;25687;-91
2023/10/29 15:53:14;;;;;;;1.73;1.30;;;2.70;99.90;;;;;;1907388;73;25193;-90
2023/10/29 15:56:08;;;;;;;2.03;1.73;;;2.70;99.90;;;;;;1911507;74;25734;-90
2023/10/29 15:58:56;;;;;;;2.67;1.57;;;2.70;99.90;;;;;;1893194;74;25666;-90
2023/10/29 16:01:46;;;;;;;2.07;1.63;;;2.70;99.90;;;;;;1917429;73;25277;-91
2023/10/29 16:04:38;;;;;;;2.17;1.10;;;2.70;99.90;;;;;;1922737;74;25274;-90
2023/10/29 16:07:27;;;;;;;5.43;1.80;;;2.70;99.90;;;;;;1927309;73;25242;-90
2023/10/29 16:13:14;;;;;;;1.00;1.00;;;2.70;99.90;;;;;;2032380;69;26979;-86
2023/10/29 16:16:04;;;;;;;3.00;1.17;;;2.70;99.90;;;;;;1994129;71;25208;-87
2023/10/29 16:18:54;;;;;;;1.40;1.30;;;2.70;99.90;;;;;;1982989;71;25193;-86
2023/10/29 16:21:45;;;;;;;4.20;1.33;;;2.70;99.90;;;;;;1980958;71;25159;-87
2023/10/29 16:24:34;;;;;;;1.70;1.20;;;2.70;99.90;;;;;;1983631;71;25211;-86
2023/10/29 16:27:24;;;;;;;3.73;1.10;;;2.70;99.90;;;;;;1985303;71;25567;-87
2023/10/29 16:30:17;;;;;;;4.63;1.83;;;2.70;99.90;;;;;;1981663;71;25195;-87
2023/10/29 16:33:08;;;;;;;4.43;2.10;;;2.70;99.90;;;;;;1984249;71;25900;-86
2023/10/29 16:35:58;;;;;;;1.43;1.20;;;2.60;99.90;;;;;;1924918;74;25737;-87
2023/10/29 16:38:48;;;;;;;1.80;1.37;;;2.60;99.90;;;;;;1927764;73;25177;-86
2023/10/29 16:41:38;;;;;;;2.40;1.90;;;2.60;99.90;;;;;;1905132;73;25288;-87
2023/10/29 16:44:29;;;;;;;6.47;2.83;;;2.60;99.90;;;;;;1894690;74;25324;-87
2023/10/29 16:47:23;;;;;;;5.33;2.60;;;2.60;99.90;;;;;;1897594;74;25270;-86
2023/10/29 17:04:47;;;;;;;5.00;2.23;;;2.60;99.90;;;;;;1999431;69;27007;-85
2023/10/29 17:10:38;;;;;;;5.40;2.00;;;2.60;99.90;;;;;;1946481;72;27611;-86
2023/10/29 17:13:28;;;;;;;1.80;1.43;;;2.60;99.90;;;;;;1925917;73;25250;-87
2023/10/29 17:16:16;;;;;;;1.87;0.73;;;2.60;99.90;;;;;;1928324;73;25177;-90
2023/10/29 17:19:06;;;;;;;7.70;2.00;;;2.60;99.90;;;;;;1928190;73;25252;-90
2023/10/29 17:21:55;;;;;;;4.97;2.10;;;2.60;99.90;;;;;;1921996;73;25572;-90
2023/10/29 17:24:44;;;;;;;2.87;1.70;;;2.60;99.90;;;;;;1918683;73;25262;-90
2023/10/29 17:27:32;;;;;;;5.20;1.13;;;2.60;99.90;;;;;;1918552;73;25253;-90
2023/10/29 17:30:22;;;;;;;4.60;2.40;;;2.60;99.90;;;;;;1919118;73;25242;-90
2023/10/29 17:33:11;;;;;;;1.70;1.60;;;2.60;99.90;;;;;;1923924;73;25279;-90
2023/10/29 17:35:59;;;;;;;5.13;2.43;;;2.60;99.90;;;;;;1916498;73;25397;-90
2023/10/29 17:38:48;;;;;;;3.03;2.20;;;2.60;99.90;;;;;;1921339;73;25239;-90
2023/10/29 17:45:21;;;;;;;3.30;2.37;;;2.60;99.90;;;;;;1968093;72;27632;-90
2023/10/29 17:48:09;;;;;;;10.63;4.53;;;2.60;99.90;;;;;;1933007;73;25340;-89
2023/10/29 17:50:58;;;;;;;3.20;1.37;;;2.60;99.90;;;;;;2015494;70;25202;-90
2023/10/29 17:53:48;;;;;;;3.87;1.60;;;2.60;99.90;;;;;;2024572;69;25639;-90
2023/10/29 17:56:37;;;;;;;4.20;3.07;;;2.60;99.90;;;;;;2018463;70;25643;-90
2023/10/29 17:59:26;;;;;;;4.90;1.90;;;2.60;99.90;;;;;;2027040;69;25713;-90
2023/10/29 18:04:59;;;;;;;3.67;1.57;;;2.60;99.90;;;;;;1934554;72;27155;-90
2023/10/29 18:07:48;;;;;;;7.97;2.40;;;2.60;99.90;;;;;;1898402;74;25774;-90
2023/10/29 18:10:37;;;;;;;3.97;1.90;;;2.60;99.90;;;;;;1888874;75;25687;-91
2023/10/29 18:13:25;;;;;;;2.27;1.87;;;2.60;99.90;;;;;;1898167;75;25297;-90
2023/10/29 18:16:13;;;;;;;4.60;2.13;;;2.60;99.90;;;;;;1888763;75;25257;-90
2023/10/29 18:19:03;;;;;;;3.03;1.70;;;2.60;99.90;;;;;;1901036;75;25182;-90
2023/10/29 18:21:52;;;;;;;2.43;1.63;;;2.60;99.90;;;;;;1902008;75;25237;-90
2023/10/29 18:24:40;;;;;;;5.83;2.20;;;2.60;99.90;;;;;;1909765;75;25310;-90
2023/10/29 18:27:29;;;;;;;5.50;2.67;;;2.60;99.90;;;;;;1896114;72;25167;-89
2023/10/29 18:30:17;;;;;;;3.40;2.20;;;2.60;99.90;;;;;;1895657;75;25688;-89
2023/10/29 18:33:05;;;;;;;4.93;1.20;;;2.60;99.90;;;;;;1890191;75;25239;-89
2023/10/29 18:35:56;;;;;;;3.97;2.43;;;2.60;99.90;;;;;;1896674;75;25233;-89
2023/10/29 18:38:45;;;;;;;9.80;2.60;;;2.60;99.90;;;;;;1905819;75;25206;-89
2023/10/29 18:41:33;;;;;;;7.07;2.57;;;2.70;99.90;;;;;;1895618;75;25306;-89
2023/10/29 18:44:29;;;;;;;3.30;2.17;;;2.70;99.90;;;;;;1871086;75;25804;-90
2023/10/29 19:06:00;;;;;;;2.13;1.57;;;2.70;99.90;;;;;;1982285;71;27240;-90
2023/10/29 19:08:49;;;;;;;3.47;2.20;;;2.70;99.90;;;;;;2030398;70;25252;-90
2023/10/29 19:11:39;;;;;;;2.00;1.50;;;2.70;99.90;;;;;;2024157;70;25235;-90
2023/10/29 19:14:31;;;;;;;2.20;1.70;;;2.70;99.90;;;;;;2027829;70;25627;-90
2023/10/29 19:17:17;;;;;;;2.83;1.50;;;2.70;99.90;;;;;;2004388;70;25170;-90
2023/10/29 19:20:10;;;;;;;3.27;1.33;;;2.70;99.90;;;;;;2019628;70;25663;-90
2023/10/29 19:25:51;;;;;;;4.10;1.90;;;2.70;99.90;;;;;;1952923;72;27007;-90
2023/10/29 19:28:39;;;;;;;3.20;1.70;;;2.70;99.90;;;;;;1923792;73;26868;-90
2023/10/29 19:47:50;;;;;;;2.23;1.70;;;2.80;99.90;;;;;;1956962;72;27101;-90
2023/10/29 19:50:39;;;;;;;2.87;1.60;;;2.70;99.90;;;;;;1909508;74;25191;-90
2023/10/29 20:07:24;;;;;;;2.50;1.70;;;2.80;99.90;;;;;;1918786;73;27364;-89
2023/10/29 20:13:06;;;;;;;2.40;1.50;;;2.80;99.90;;;;;;1941479;72;26905;-90
2023/10/29 20:15:55;;;;;;;1.83;1.50;;;2.80;99.90;;;;;;1927694;73;25224;-90
2023/10/29 20:18:44;;;;;;;3.37;1.20;;;2.80;99.90;;;;;;1939372;73;25345;-90
2023/10/29 20:21:33;;;;;;;4.67;2.03;;;2.70;99.90;;;;;;1947678;73;25286;-90
2023/10/29 20:24:22;;;;;;;1.57;1.10;;;2.70;99.90;;;;;;1951402;72;25182;-90
2023/10/29 20:27:11;;;;;;;2.77;1.33;;;2.60;99.90;;;;;;1929502;73;25245;-90
2023/10/29 20:30:00;;;;;;;2.87;1.70;;;2.60;99.90;;;;;;1932434;73;25285;-90
2023/10/29 20:32:48;;;;;;;2.90;2.20;;;2.60;99.90;;;;;;1879894;75;25272;-90
2023/10/29 20:35:38;;;;;;;1.50;1.40;;;2.60;99.90;;;;;;1896447;75;25244;-89
2023/10/29 20:38:27;;;;;;;3.73;2.13;;;2.60;99.90;;;;;;1895431;75;25804;-89
2023/10/29 20:44:00;;;;;;;3.03;1.50;;;2.60;99.90;;;;;;1947938;72;27008;-91
2023/10/29 20:52:02;;;;;;;2.63;1.70;;;2.60;99.90;;;;;;1953781;71;27400;-90
2023/10/29 20:54:51;;;;;;;2.67;1.67;;;2.70;99.90;;;;;;1996218;70;25221;-90
2023/10/29 20:57:40;;;;;;;2.30;1.67;;;2.70;99.90;;;;;;1992824;70;25221;-90
2023/10/29 21:00:29;;;;;;;2.10;1.67;;;2.70;99.90;;;;;;1980059;70;25213;-89
2023/10/29 21:03:18;;;;;;;2.17;1.73;;;2.70;99.90;;;;;;1983796;70;25676;-90
2023/10/29 21:08:50;;;;;;;1.50;1.27;;;2.80;99.90;;;;;;1954584;70;27017;-90
2023/10/29 21:11:38;;;;;;;5.77;1.57;;;2.80;99.90;;;;;;1947964;72;26678;-90
2023/10/29 21:17:45;;;;;;;2.27;1.70;;;2.80;99.90;;;;;;1992775;71;26315;-91
2023/10/29 21:36:38;;;;;;;2.53;1.30;;;2.80;99.90;;;;;;1959358;72;26890;-91
2023/10/29 21:39:27;;;;;;;1.13;1.03;;;2.80;99.90;;;;;;1888594;73;25165;-91
2023/10/29 21:42:15;;;;;;;2.23;1.50;;;2.80;99.90;;;;;;1930261;72;25256;-90
2023/10/29 21:47:49;;;;;;;2.43;1.10;;;2.80;99.90;;;;;;1947276;72;27565;-91
2023/10/29 22:08:37;;;;;;;5.13;1.83;;;2.90;99.90;;;;;;1922873;72;27034;-90
2023/10/29 22:11:25;;;;;;;2.27;1.20;;;2.80;99.90;;;;;;1867673;75;25904;-91
2023/10/29 22:14:13;;;;;;;2.13;1.50;;;2.80;99.90;;;;;;1861410;75;25275;-91
2023/10/29 22:17:03;;;;;;;2.10;1.10;;;2.80;99.90;;;;;;1861628;75;25194;-90
2023/10/29 22:19:51;;;;;;;2.53;1.17;;;2.70;99.90;;;;;;1888679;75;25163;-91
2023/10/29 22:22:40;;;;;;;2.90;1.50;;;2.70;99.90;;;;;;1858836;76;25221;-90
2023/10/29 22:25:29;;;;;;;1.17;1.03;;;2.70;99.90;;;;;;1886576;75;25252;-90
2023/10/29 22:28:18;;;;;;;5.87;1.77;;;2.60;99.90;;;;;;1883806;75;25754;-90
2023/10/29 22:31:06;;;;;;;2.13;1.47;;;2.60;99.90;;;;;;1886697;75;25278;-90
2023/10/29 22:33:55;;;;;;;1.40;1.30;;;2.60;99.90;;;;;;1878553;75;25287;-90
2023/10/29 22:36:49;;;;;;;0.83;0.80;;;2.60;99.90;;;;;;1872002;75;25924;-91
2023/10/29 22:39:38;;;;;;;3.67;1.77;;;2.60;99.90;;;;;;1874918;75;25202;-91
2023/10/29 22:45:13;;;;;;;1.67;1.23;;;2.50;99.90;;;;;;1952700;72;27004;-91
2023/10/29 22:48:16;;;;;;;9.77;2.40;;;2.50;99.90;;;;;;1906336;73;25630;-91
2023/10/29 23:02:40;;;;;;;3.97;1.63;;;2.30;99.90;;;;;;1893590;75;25696;-92
2023/10/29 23:55:27;;;;;;;5.33;1.80;;;1.60;99.90;;;;;;1887977;74;25182;-92
